sensor_id;sensor_type;location;lat;lon;timestamp;temperature;humidity
43627;DHT22;29217;52.586;13.442;2023-07-29T00:00:52;17.40;99.90
43627;DHT22;29217;52.586;13.442;2023-07-29T00:03:18;17.30;99.90
43627;DHT22;29217;52.586;13.442;2023-07-29T00:05:43;17.30;99.90
43627;DHT22;29217;52.586;13.442;2023-07-29T00:08:09;17.30;99.90
43627;DHT22;29217;52.586;13.442;2023-07-29T00:10:37;17.20;99.90
43627;DHT22;29217;52.586;13.442;2023-07-29T00:13:04;16.90;99.90
43627;DHT22;29217;52.586;13.442;2023-07-29T00:15:30;16.70;99.90
43627;DHT22;29217;52.586;13.442;2023-07-29T00:17:56;16.60;99.90
43627;DHT22;29217;52.586;13.442;2023-07-29T00:20:21;16.60;99.90
43627;DHT22;29217;52.586;13.442;2023-07-29T00:22:47;16.70;99.90
43627;DHT22;29217;52.586;13.442;2023-07-29T00:25:15;16.80;99.90
43627;DHT22;29217;52.586;13.442;2023-07-29T00:27:42;16.80;99.90
43627;DHT22;29217;52.586;13.442;2023-07-29T00:30:08;16.80;99.90
43627;DHT22;29217;52.586;13.442;2023-07-29T00:32:35;16.70;99.90
43627;DHT22;29217;52.586;13.442;2023-07-29T00:35:01;16.60;99.90
43627;DHT22;29217;52.586;13.442;2023-07-29T00:37:28;16.60;99.90
43627;DHT22;29217;52.586;13.442;2023-07-29T00:39:54;16.70;99.90
43627;DHT22;29217;52.586;13.442;2023-07-29T00:42:20;16.70;99.90
43627;DHT22;29217;52.586;13.442;2023-07-29T00:44:45;16.70;99.90
43627;DHT22;29217;52.586;13.442;2023-07-29T00:47:11;16.70;99.90
43627;DHT22;29217;52.586;13.442;2023-07-29T00:49:38;16.60;99.90
43627;DHT22;29217;52.586;13.442;2023-07-29T00:52:04;16.40;99.90
43627;DHT22;29217;52.586;13.442;2023-07-29T00:54:29;16.30;99.90
43627;DHT22;29217;52.586;13.442;2023-07-29T00:56:55;16.30;99.90
43627;DHT22;29217;52.586;13.442;2023-07-29T00:59:21;16.30;99.90
43627;DHT22;29217;52.586;13.442;2023-07-29T01:01:48;16.20;99.90
43627;DHT22;29217;52.586;13.442;2023-07-29T01:04:14;16.30;99.90
43627;DHT22;29217;52.586;13.442;2023-07-29T01:09:24;16.20;99.90
43627;DHT22;29217;52.586;13.442;2023-07-29T01:15:31;16.20;99.90
43627;DHT22;29217;52.586;13.442;2023-07-29T01:17:31;16.20;99.90
43627;DHT22;29217;52.586;13.442;2023-07-29T01:20:07;16.20;99.90
43627;DHT22;29217;52.586;13.442;2023-07-29T01:22:34;16.20;99.90
43627;DHT22;29217;52.586;13.442;2023-07-29T01:25:00;16.10;99.90
43627;DHT22;29217;52.586;13.442;2023-07-29T01:27:26;16.10;99.90
43627;DHT22;29217;52.586;13.442;2023-07-29T01:29:53;16.10;99.90
43627;DHT22;29217;52.586;13.442;2023-07-29T01:32:30;16.10;99.90
43627;DHT22;29217;52.586;13.442;2023-07-29T01:35:05;16.10;99.90
43627;DHT22;29217;52.586;13.442;2023-07-29T01:37:34;16.10;99.90
43627;DHT22;29217;52.586;13.442;2023-07-29T01:40:02;16.00;99.90
43627;DHT22;29217;52.586;13.442;2023-07-29T01:42:29;15.90;99.90
43627;DHT22;29217;52.586;13.442;2023-07-29T01:44:56;15.90;99.90
43627;DHT22;29217;52.586;13.442;2023-07-29T01:47:22;15.80;99.90
43627;DHT22;29217;52.586;13.442;2023-07-29T01:49:48;15.80;99.90
43627;DHT22;29217;52.586;13.442;2023-07-29T01:52:13;15.80;99.90
43627;DHT22;29217;52.586;13.442;2023-07-29T01:54:39;15.80;99.90
43627;DHT22;29217;52.586;13.442;2023-07-29T01:57:05;15.90;99.90
43627;DHT22;29217;52.586;13.442;2023-07-29T01:59:30;15.80;99.90
43627;DHT22;29217;52.586;13.442;2023-07-29T02:01:56;15.80;99.90
43627;DHT22;29217;52.586;13.442;2023-07-29T02:04:21;15.80;99.90
43627;DHT22;29217;52.586;13.442;2023-07-29T02:06:47;15.80;99.90
43627;DHT22;29217;52.586;13.442;2023-07-29T02:09:13;15.80;99.90
43627;DHT22;29217;52.586;13.442;2023-07-29T02:11:38;15.80;99.90
43627;DHT22;29217;52.586;13.442;2023-07-29T02:14:04;15.80;99.90
43627;DHT22;29217;52.586;13.442;2023-07-29T02:16:29;15.80;99.90
43627;DHT22;29217;52.586;13.442;2023-07-29T02:18:55;15.80;99.90
43627;DHT22;29217;52.586;13.442;2023-07-29T02:21:21;15.80;99.90
43627;DHT22;29217;52.586;13.442;2023-07-29T02:23:46;15.70;99.90
43627;DHT22;29217;52.586;13.442;2023-07-29T02:26:12;15.70;99.90
43627;DHT22;29217;52.586;13.442;2023-07-29T02:28:37;15.60;99.90
43627;DHT22;29217;52.586;13.442;2023-07-29T02:31:21;15.60;99.90
43627;DHT22;29217;52.586;13.442;2023-07-29T02:33:47;15.60;99.90
43627;DHT22;29217;52.586;13.442;2023-07-29T02:36:13;15.60;99.90
43627;DHT22;29217;52.586;13.442;2023-07-29T02:38:39;15.50;99.90
43627;DHT22;29217;52.586;13.442;2023-07-29T02:41:05;15.60;99.90
43627;DHT22;29217;52.586;13.442;2023-07-29T02:43:30;15.50;99.90
43627;DHT22;29217;52.586;13.442;2023-07-29T02:45:56;15.50;99.90
43627;DHT22;29217;52.586;13.442;2023-07-29T02:48:22;15.50;99.90
43627;DHT22;29217;52.586;13.442;2023-07-29T02:50:47;15.60;99.90
43627;DHT22;29217;52.586;13.442;2023-07-29T02:53:13;15.60;99.90
43627;DHT22;29217;52.586;13.442;2023-07-29T02:55:41;15.60;99.90
43627;DHT22;29217;52.586;13.442;2023-07-29T02:58:07;15.60;99.90
43627;DHT22;29217;52.586;13.442;2023-07-29T03:00:33;15.60;99.90
43627;DHT22;29217;52.586;13.442;2023-07-29T03:02:59;15.60;99.90
43627;DHT22;29217;52.586;13.442;2023-07-29T03:05:27;15.60;99.90
43627;DHT22;29217;52.586;13.442;2023-07-29T03:07:53;15.50;99.90
43627;DHT22;29217;52.586;13.442;2023-07-29T03:10:19;15.50;99.90
43627;DHT22;29217;52.586;13.442;2023-07-29T03:12:46;15.60;99.90
43627;DHT22;29217;52.586;13.442;2023-07-29T03:15:12;15.60;99.90
43627;DHT22;29217;52.586;13.442;2023-07-29T03:17:37;15.60;99.90
43627;DHT22;29217;52.586;13.442;2023-07-29T03:20:03;15.60;99.90
43627;DHT22;29217;52.586;13.442;2023-07-29T03:22:29;15.50;99.90
43627;DHT22;29217;52.586;13.442;2023-07-29T03:24:55;15.40;99.90
43627;DHT22;29217;52.586;13.442;2023-07-29T03:27:20;15.40;99.90
43627;DHT22;29217;52.586;13.442;2023-07-29T03:29:46;15.40;99.90
43627;DHT22;29217;52.586;13.442;2023-07-29T03:32:11;15.40;99.90
43627;DHT22;29217;52.586;13.442;2023-07-29T03:34:37;15.40;99.90
43627;DHT22;29217;52.586;13.442;2023-07-29T03:37:04;15.40;99.90
43627;DHT22;29217;52.586;13.442;2023-07-29T03:39:29;15.40;99.90
43627;DHT22;29217;52.586;13.442;2023-07-29T03:41:55;15.50;99.90
43627;DHT22;29217;52.586;13.442;2023-07-29T03:44:20;15.40;99.90
43627;DHT22;29217;52.586;13.442;2023-07-29T03:46:46;15.40;99.90
43627;DHT22;29217;52.586;13.442;2023-07-29T03:49:11;15.50;99.90
43627;DHT22;29217;52.586;13.442;2023-07-29T03:51:37;15.50;99.90
43627;DHT22;29217;52.586;13.442;2023-07-29T03:54:03;15.50;99.90
43627;DHT22;29217;52.586;13.442;2023-07-29T03:56:28;15.50;99.90
43627;DHT22;29217;52.586;13.442;2023-07-29T03:59:02;15.40;99.90
43627;DHT22;29217;52.586;13.442;2023-07-29T04:01:28;15.50;99.90
43627;DHT22;29217;52.586;13.442;2023-07-29T04:03:54;15.50;99.90
43627;DHT22;29217;52.586;13.442;2023-07-29T04:06:20;15.50;99.90
43627;DHT22;29217;52.586;13.442;2023-07-29T04:08:46;15.60;99.90
43627;DHT22;29217;52.586;13.442;2023-07-29T04:11:11;15.60;99.90
43627;DHT22;29217;52.586;13.442;2023-07-29T04:13:37;15.60;99.90
43627;DHT22;29217;52.586;13.442;2023-07-29T04:16:04;15.60;99.90
43627;DHT22;29217;52.586;13.442;2023-07-29T04:18:29;15.60;99.90
43627;DHT22;29217;52.586;13.442;2023-07-29T04:20:55;15.70;99.90
43627;DHT22;29217;52.586;13.442;2023-07-29T04:23:20;15.70;99.90
43627;DHT22;29217;52.586;13.442;2023-07-29T04:25:46;15.80;99.90
43627;DHT22;29217;52.586;13.442;2023-07-29T04:28:12;15.80;99.90
43627;DHT22;29217;52.586;13.442;2023-07-29T04:30:37;15.90;99.90
43627;DHT22;29217;52.586;13.442;2023-07-29T04:33:03;15.90;99.90
43627;DHT22;29217;52.586;13.442;2023-07-29T04:35:28;15.90;99.90
43627;DHT22;29217;52.586;13.442;2023-07-29T04:37:54;16.10;99.90
43627;DHT22;29217;52.586;13.442;2023-07-29T04:40:20;16.20;99.90
43627;DHT22;29217;52.586;13.442;2023-07-29T04:42:45;16.30;99.90
43627;DHT22;29217;52.586;13.442;2023-07-29T04:45:11;16.30;99.90
43627;DHT22;29217;52.586;13.442;2023-07-29T04:47:37;16.40;99.90
43627;DHT22;29217;52.586;13.442;2023-07-29T04:50:03;16.60;99.90
43627;DHT22;29217;52.586;13.442;2023-07-29T04:52:28;16.70;99.90
43627;DHT22;29217;52.586;13.442;2023-07-29T04:54:54;16.90;99.90
43627;DHT22;29217;52.586;13.442;2023-07-29T04:57:19;16.90;99.90
43627;DHT22;29217;52.586;13.442;2023-07-29T04:59:45;17.00;99.90
43627;DHT22;29217;52.586;13.442;2023-07-29T05:02:11;17.10;99.90
43627;DHT22;29217;52.586;13.442;2023-07-29T05:04:36;17.10;99.90
43627;DHT22;29217;52.586;13.442;2023-07-29T05:07:02;17.20;99.90
43627;DHT22;29217;52.586;13.442;2023-07-29T05:09:27;17.20;99.90
43627;DHT22;29217;52.586;13.442;2023-07-29T05:11:53;17.30;99.90
43627;DHT22;29217;52.586;13.442;2023-07-29T05:14:19;17.40;99.90
43627;DHT22;29217;52.586;13.442;2023-07-29T05:16:44;17.50;99.90
43627;DHT22;29217;52.586;13.442;2023-07-29T05:19:10;17.60;99.90
43627;DHT22;29217;52.586;13.442;2023-07-29T05:21:37;17.70;99.90
43627;DHT22;29217;52.586;13.442;2023-07-29T05:24:03;17.80;99.90
43627;DHT22;29217;52.586;13.442;2023-07-29T05:26:29;17.80;99.90
43627;DHT22;29217;52.586;13.442;2023-07-29T05:28:54;17.80;99.90
43627;DHT22;29217;52.586;13.442;2023-07-29T05:31:20;17.90;99.90
43627;DHT22;29217;52.586;13.442;2023-07-29T05:33:46;17.90;99.90
43627;DHT22;29217;52.586;13.442;2023-07-29T05:36:11;17.90;99.90
43627;DHT22;29217;52.586;13.442;2023-07-29T05:38:37;18.00;99.90
43627;DHT22;29217;52.586;13.442;2023-07-29T05:41:02;18.10;99.90
43627;DHT22;29217;52.586;13.442;2023-07-29T05:43:28;18.20;99.90
43627;DHT22;29217;52.586;13.442;2023-07-29T05:45:54;18.40;99.90
43627;DHT22;29217;52.586;13.442;2023-07-29T05:48:19;18.50;99.90
43627;DHT22;29217;52.586;13.442;2023-07-29T05:50:45;18.60;99.90
43627;DHT22;29217;52.586;13.442;2023-07-29T05:53:11;18.60;99.90
43627;DHT22;29217;52.586;13.442;2023-07-29T05:55:36;18.60;99.90
43627;DHT22;29217;52.586;13.442;2023-07-29T05:58:02;18.70;99.90
43627;DHT22;29217;52.586;13.442;2023-07-29T06:00:28;18.60;99.90
43627;DHT22;29217;52.586;13.442;2023-07-29T06:02:53;18.60;99.90
43627;DHT22;29217;52.586;13.442;2023-07-29T06:05:19;18.60;99.90
43627;DHT22;29217;52.586;13.442;2023-07-29T06:07:44;18.60;99.90
43627;DHT22;29217;52.586;13.442;2023-07-29T06:10:16;18.70;99.90
43627;DHT22;29217;52.586;13.442;2023-07-29T06:12:44;18.80;99.90
43627;DHT22;29217;52.586;13.442;2023-07-29T06:15:10;18.80;99.90
43627;DHT22;29217;52.586;13.442;2023-07-29T06:17:36;18.90;99.90
43627;DHT22;29217;52.586;13.442;2023-07-29T06:20:01;18.90;99.90
43627;DHT22;29217;52.586;13.442;2023-07-29T06:22:28;19.00;99.90
43627;DHT22;29217;52.586;13.442;2023-07-29T06:24:54;19.00;99.90
43627;DHT22;29217;52.586;13.442;2023-07-29T06:27:19;19.10;99.90
43627;DHT22;29217;52.586;13.442;2023-07-29T06:29:45;19.10;99.90
43627;DHT22;29217;52.586;13.442;2023-07-29T06:32:10;19.20;99.90
43627;DHT22;29217;52.586;13.442;2023-07-29T06:34:36;19.20;99.90
43627;DHT22;29217;52.586;13.442;2023-07-29T06:37:02;19.40;99.90
43627;DHT22;29217;52.586;13.442;2023-07-29T06:39:27;19.40;99.90
43627;DHT22;29217;52.586;13.442;2023-07-29T06:41:53;19.40;99.90
43627;DHT22;29217;52.586;13.442;2023-07-29T06:44:19;19.40;99.90
43627;DHT22;29217;52.586;13.442;2023-07-29T06:46:44;19.50;99.90
43627;DHT22;29217;52.586;13.442;2023-07-29T06:49:10;19.50;99.90
43627;DHT22;29217;52.586;13.442;2023-07-29T06:51:35;19.60;99.90
43627;DHT22;29217;52.586;13.442;2023-07-29T06:54:02;19.70;99.90
43627;DHT22;29217;52.586;13.442;2023-07-29T06:56:27;19.70;99.90
43627;DHT22;29217;52.586;13.442;2023-07-29T06:58:53;19.90;99.90
43627;DHT22;29217;52.586;13.442;2023-07-29T07:01:18;20.00;99.90
43627;DHT22;29217;52.586;13.442;2023-07-29T07:03:44;20.20;99.90
43627;DHT22;29217;52.586;13.442;2023-07-29T07:06:10;20.20;99.90
43627;DHT22;29217;52.586;13.442;2023-07-29T07:08:35;20.30;99.90
43627;DHT22;29217;52.586;13.442;2023-07-29T07:11:01;20.30;99.90
43627;DHT22;29217;52.586;13.442;2023-07-29T07:13:26;20.40;99.90
43627;DHT22;29217;52.586;13.442;2023-07-29T07:15:56;20.50;99.90
43627;DHT22;29217;52.586;13.442;2023-07-29T07:18:22;20.50;99.90
43627;DHT22;29217;52.586;13.442;2023-07-29T07:20:51;20.50;99.90
43627;DHT22;29217;52.586;13.442;2023-07-29T07:23:18;20.70;99.90
43627;DHT22;29217;52.586;13.442;2023-07-29T07:25:44;20.90;99.90
43627;DHT22;29217;52.586;13.442;2023-07-29T07:28:10;21.00;99.90
43627;DHT22;29217;52.586;13.442;2023-07-29T07:30:35;21.10;99.90
43627;DHT22;29217;52.586;13.442;2023-07-29T07:33:04;21.00;99.90
43627;DHT22;29217;52.586;13.442;2023-07-29T07:35:30;20.90;99.90
43627;DHT22;29217;52.586;13.442;2023-07-29T07:37:55;20.90;99.90
43627;DHT22;29217;52.586;13.442;2023-07-29T07:40:21;20.80;99.90
43627;DHT22;29217;52.586;13.442;2023-07-29T07:42:46;20.80;99.90
43627;DHT22;29217;52.586;13.442;2023-07-29T07:45:12;20.70;99.90
43627;DHT22;29217;52.586;13.442;2023-07-29T07:47:38;20.70;99.90
43627;DHT22;29217;52.586;13.442;2023-07-29T07:50:03;20.70;99.90
43627;DHT22;29217;52.586;13.442;2023-07-29T07:52:29;20.80;99.90
43627;DHT22;29217;52.586;13.442;2023-07-29T07:54:55;20.90;99.90
43627;DHT22;29217;52.586;13.442;2023-07-29T07:57:21;20.90;99.90
43627;DHT22;29217;52.586;13.442;2023-07-29T07:59:47;21.00;99.90
43627;DHT22;29217;52.586;13.442;2023-07-29T08:02:13;21.00;99.90
43627;DHT22;29217;52.586;13.442;2023-07-29T08:04:38;21.20;99.90
43627;DHT22;29217;52.586;13.442;2023-07-29T08:07:04;21.40;99.90
43627;DHT22;29217;52.586;13.442;2023-07-29T08:09:30;21.50;99.90
43627;DHT22;29217;52.586;13.442;2023-07-29T08:11:55;21.60;99.90
43627;DHT22;29217;52.586;13.442;2023-07-29T08:14:21;21.80;99.90
43627;DHT22;29217;52.586;13.442;2023-07-29T08:16:46;21.80;99.90
43627;DHT22;29217;52.586;13.442;2023-07-29T08:19:12;22.00;99.90
43627;DHT22;29217;52.586;13.442;2023-07-29T08:21:38;22.20;99.90
43627;DHT22;29217;52.586;13.442;2023-07-29T08:24:03;22.20;99.90
43627;DHT22;29217;52.586;13.442;2023-07-29T08:26:29;22.10;99.90
43627;DHT22;29217;52.586;13.442;2023-07-29T08:28:55;22.10;99.90
43627;DHT22;29217;52.586;13.442;2023-07-29T08:31:20;22.10;99.90
43627;DHT22;29217;52.586;13.442;2023-07-29T08:33:46;22.20;99.90
43627;DHT22;29217;52.586;13.442;2023-07-29T08:36:11;22.20;99.90
43627;DHT22;29217;52.586;13.442;2023-07-29T08:38:37;22.20;99.90
43627;DHT22;29217;52.586;13.442;2023-07-29T08:44:01;22.20;99.90
43627;DHT22;29217;52.586;13.442;2023-07-29T08:46:28;22.20;99.90
43627;DHT22;29217;52.586;13.442;2023-07-29T08:48:55;22.10;99.90
43627;DHT22;29217;52.586;13.442;2023-07-29T08:51:21;22.10;99.90
43627;DHT22;29217;52.586;13.442;2023-07-29T08:53:49;22.20;99.90
43627;DHT22;29217;52.586;13.442;2023-07-29T08:56:15;22.30;99.90
43627;DHT22;29217;52.586;13.442;2023-07-29T08:58:42;22.60;99.90
43627;DHT22;29217;52.586;13.442;2023-07-29T09:01:08;22.70;99.90
43627;DHT22;29217;52.586;13.442;2023-07-29T09:03:34;22.60;99.90
43627;DHT22;29217;52.586;13.442;2023-07-29T09:05:59;22.50;99.90
43627;DHT22;29217;52.586;13.442;2023-07-29T09:08:27;22.50;99.90
43627;DHT22;29217;52.586;13.442;2023-07-29T09:10:54;22.40;99.90
43627;DHT22;29217;52.586;13.442;2023-07-29T09:13:20;22.30;99.90
43627;DHT22;29217;52.586;13.442;2023-07-29T09:15:46;22.40;99.90
43627;DHT22;29217;52.586;13.442;2023-07-29T09:18:15;22.30;99.90
43627;DHT22;29217;52.586;13.442;2023-07-29T09:20:41;22.40;99.90
43627;DHT22;29217;52.586;13.442;2023-07-29T09:23:09;22.50;99.90
43627;DHT22;29217;52.586;13.442;2023-07-29T09:25:36;22.60;99.90
43627;DHT22;29217;52.586;13.442;2023-07-29T09:28:09;22.60;99.90
43627;DHT22;29217;52.586;13.442;2023-07-29T09:30:35;22.70;99.90
43627;DHT22;29217;52.586;13.442;2023-07-29T09:33:00;22.80;99.90
43627;DHT22;29217;52.586;13.442;2023-07-29T09:35:30;22.90;99.90
43627;DHT22;29217;52.586;13.442;2023-07-29T09:37:57;23.10;99.90
43627;DHT22;29217;52.586;13.442;2023-07-29T09:40:23;23.30;99.90
43627;DHT22;29217;52.586;13.442;2023-07-29T09:42:53;23.40;99.90
43627;DHT22;29217;52.586;13.442;2023-07-29T09:45:23;23.40;99.90
43627;DHT22;29217;52.586;13.442;2023-07-29T09:47:49;23.30;99.90
43627;DHT22;29217;52.586;13.442;2023-07-29T09:50:16;23.30;99.90
43627;DHT22;29217;52.586;13.442;2023-07-29T09:52:42;23.40;99.90
43627;DHT22;29217;52.586;13.442;2023-07-29T09:55:12;23.40;99.90
43627;DHT22;29217;52.586;13.442;2023-07-29T09:57:40;23.40;99.90
43627;DHT22;29217;52.586;13.442;2023-07-29T10:00:06;23.30;99.90
43627;DHT22;29217;52.586;13.442;2023-07-29T10:02:40;23.30;99.90
43627;DHT22;29217;52.586;13.442;2023-07-29T10:05:07;23.30;99.90
43627;DHT22;29217;52.586;13.442;2023-07-29T10:07:37;23.30;99.90
43627;DHT22;29217;52.586;13.442;2023-07-29T10:10:04;23.30;99.90
43627;DHT22;29217;52.586;13.442;2023-07-29T10:12:34;23.30;99.90
43627;DHT22;29217;52.586;13.442;2023-07-29T10:15:02;23.30;99.90
43627;DHT22;29217;52.586;13.442;2023-07-29T10:17:29;23.40;99.90
43627;DHT22;29217;52.586;13.442;2023-07-29T10:19:56;23.50;99.90
43627;DHT22;29217;52.586;13.442;2023-07-29T10:22:28;23.50;99.90
43627;DHT22;29217;52.586;13.442;2023-07-29T10:24:59;23.60;99.90
43627;DHT22;29217;52.586;13.442;2023-07-29T10:27:25;23.60;99.90
43627;DHT22;29217;52.586;13.442;2023-07-29T10:29:55;23.50;99.90
43627;DHT22;29217;52.586;13.442;2023-07-29T10:32:25;23.60;99.90
43627;DHT22;29217;52.586;13.442;2023-07-29T10:34:50;23.50;99.90
43627;DHT22;29217;52.586;13.442;2023-07-29T10:37:16;23.40;99.90
43627;DHT22;29217;52.586;13.442;2023-07-29T10:39:53;23.30;99.90
43627;DHT22;29217;52.586;13.442;2023-07-29T10:42:19;23.20;99.90
43627;DHT22;29217;52.586;13.442;2023-07-29T10:44:49;23.30;99.90
43627;DHT22;29217;52.586;13.442;2023-07-29T10:47:26;23.40;99.90
43627;DHT22;29217;52.586;13.442;2023-07-29T10:49:54;23.50;99.90
43627;DHT22;29217;52.586;13.442;2023-07-29T10:52:43;23.60;99.90
43627;DHT22;29217;52.586;13.442;2023-07-29T10:55:33;23.70;99.90
43627;DHT22;29217;52.586;13.442;2023-07-29T10:58:16;23.70;99.90
43627;DHT22;29217;52.586;13.442;2023-07-29T11:00:45;23.60;99.90
43627;DHT22;29217;52.586;13.442;2023-07-29T11:03:12;23.50;99.90
43627;DHT22;29217;52.586;13.442;2023-07-29T11:05:44;23.40;99.90
43627;DHT22;29217;52.586;13.442;2023-07-29T11:11:06;23.10;99.90
43627;DHT22;29217;52.586;13.442;2023-07-29T11:13:34;23.00;99.90
43627;DHT22;29217;52.586;13.442;2023-07-29T11:16:01;22.90;99.90
43627;DHT22;29217;52.586;13.442;2023-07-29T11:18:34;22.80;99.90
43627;DHT22;29217;52.586;13.442;2023-07-29T11:21:01;22.70;99.90
43627;DHT22;29217;52.586;13.442;2023-07-29T11:23:37;22.60;99.90
43627;DHT22;29217;52.586;13.442;2023-07-29T11:26:04;22.20;99.90
43627;DHT22;29217;52.586;13.442;2023-07-29T11:28:30;21.50;99.90
43627;DHT22;29217;52.586;13.442;2023-07-29T11:30:57;21.00;99.90
43627;DHT22;29217;52.586;13.442;2023-07-29T11:33:26;20.70;99.90
43627;DHT22;29217;52.586;13.442;2023-07-29T11:35:54;20.50;99.90
43627;DHT22;29217;52.586;13.442;2023-07-29T11:38:21;20.40;99.90
43627;DHT22;29217;52.586;13.442;2023-07-29T11:41:00;20.30;99.90
43627;DHT22;29217;52.586;13.442;2023-07-29T11:43:28;20.30;99.90
43627;DHT22;29217;52.586;13.442;2023-07-29T11:45:54;20.30;99.90
43627;DHT22;29217;52.586;13.442;2023-07-29T11:48:33;20.20;99.90
43627;DHT22;29217;52.586;13.442;2023-07-29T11:50:58;20.20;99.90
43627;DHT22;29217;52.586;13.442;2023-07-29T11:53:30;20.20;99.90
43627;DHT22;29217;52.586;13.442;2023-07-29T11:55:56;20.20;99.90
43627;DHT22;29217;52.586;13.442;2023-07-29T11:58:22;20.30;99.90
43627;DHT22;29217;52.586;13.442;2023-07-29T12:00:48;20.30;99.90
43627;DHT22;29217;52.586;13.442;2023-07-29T12:03:14;20.30;99.90
43627;DHT22;29217;52.586;13.442;2023-07-29T12:05:41;20.30;99.90
43627;DHT22;29217;52.586;13.442;2023-07-29T12:08:08;20.30;99.90
43627;DHT22;29217;52.586;13.442;2023-07-29T12:10:34;20.30;99.90
43627;DHT22;29217;52.586;13.442;2023-07-29T12:13:02;20.40;99.90
43627;DHT22;29217;52.586;13.442;2023-07-29T12:15:29;20.50;99.90
43627;DHT22;29217;52.586;13.442;2023-07-29T12:17:59;20.50;99.90
43627;DHT22;29217;52.586;13.442;2023-07-29T12:20:25;20.60;99.90
43627;DHT22;29217;52.586;13.442;2023-07-29T12:22:54;20.60;99.90
43627;DHT22;29217;52.586;13.442;2023-07-29T12:25:20;20.60;99.90
43627;DHT22;29217;52.586;13.442;2023-07-29T12:27:47;20.60;99.90
43627;DHT22;29217;52.586;13.442;2023-07-29T12:30:12;20.60;99.90
43627;DHT22;29217;52.586;13.442;2023-07-29T12:32:47;20.60;99.90
43627;DHT22;29217;52.586;13.442;2023-07-29T12:35:13;20.60;99.90
43627;DHT22;29217;52.586;13.442;2023-07-29T12:37:39;20.50;99.90
43627;DHT22;29217;52.586;13.442;2023-07-29T12:40:09;20.50;99.90
43627;DHT22;29217;52.586;13.442;2023-07-29T12:42:45;20.50;99.90
43627;DHT22;29217;52.586;13.442;2023-07-29T12:45:11;20.60;99.90
43627;DHT22;29217;52.586;13.442;2023-07-29T12:47:36;20.70;99.90
43627;DHT22;29217;52.586;13.442;2023-07-29T12:50:02;20.90;99.90
43627;DHT22;29217;52.586;13.442;2023-07-29T12:52:27;21.10;99.90
43627;DHT22;29217;52.586;13.442;2023-07-29T12:54:53;21.10;99.90
43627;DHT22;29217;52.586;13.442;2023-07-29T12:57:18;21.20;99.90
43627;DHT22;29217;52.586;13.442;2023-07-29T12:59:44;21.50;99.90
43627;DHT22;29217;52.586;13.442;2023-07-29T13:02:10;21.70;99.90
43627;DHT22;29217;52.586;13.442;2023-07-29T13:04:35;21.90;99.90
43627;DHT22;29217;52.586;13.442;2023-07-29T13:07:01;22.00;99.90
43627;DHT22;29217;52.586;13.442;2023-07-29T13:09:26;22.10;99.90
43627;DHT22;29217;52.586;13.442;2023-07-29T13:11:52;22.20;99.90
43627;DHT22;29217;52.586;13.442;2023-07-29T13:14:17;22.30;99.90
43627;DHT22;29217;52.586;13.442;2023-07-29T13:16:43;22.40;99.90
43627;DHT22;29217;52.586;13.442;2023-07-29T13:19:08;22.60;99.90
43627;DHT22;29217;52.586;13.442;2023-07-29T13:21:34;22.50;99.90
43627;DHT22;29217;52.586;13.442;2023-07-29T13:24:00;22.50;99.90
43627;DHT22;29217;52.586;13.442;2023-07-29T13:26:25;22.40;99.90
43627;DHT22;29217;52.586;13.442;2023-07-29T13:28:51;22.10;99.90
43627;DHT22;29217;52.586;13.442;2023-07-29T13:31:16;22.00;99.90
43627;DHT22;29217;52.586;13.442;2023-07-29T13:33:42;22.00;99.90
43627;DHT22;29217;52.586;13.442;2023-07-29T13:36:07;22.20;99.90
43627;DHT22;29217;52.586;13.442;2023-07-29T13:38:36;22.30;99.90
43627;DHT22;29217;52.586;13.442;2023-07-29T13:41:02;22.30;99.90
43627;DHT22;29217;52.586;13.442;2023-07-29T13:43:28;22.20;99.90
43627;DHT22;29217;52.586;13.442;2023-07-29T13:45:53;22.30;99.90
43627;DHT22;29217;52.586;13.442;2023-07-29T13:48:19;22.30;99.90
43627;DHT22;29217;52.586;13.442;2023-07-29T13:50:45;22.80;99.90
43627;DHT22;29217;52.586;13.442;2023-07-29T13:53:10;23.30;99.90
43627;DHT22;29217;52.586;13.442;2023-07-29T13:55:36;23.60;99.90
43627;DHT22;29217;52.586;13.442;2023-07-29T13:58:02;23.70;99.90
43627;DHT22;29217;52.586;13.442;2023-07-29T14:00:28;23.70;99.90
43627;DHT22;29217;52.586;13.442;2023-07-29T14:02:53;23.60;99.90
43627;DHT22;29217;52.586;13.442;2023-07-29T14:05:19;23.40;99.90
43627;DHT22;29217;52.586;13.442;2023-07-29T14:07:45;23.30;99.90
43627;DHT22;29217;52.586;13.442;2023-07-29T14:10:10;23.50;99.90
43627;DHT22;29217;52.586;13.442;2023-07-29T14:12:36;23.50;99.90
43627;DHT22;29217;52.586;13.442;2023-07-29T14:15:02;23.40;99.90
43627;DHT22;29217;52.586;13.442;2023-07-29T14:17:28;23.50;99.90
43627;DHT22;29217;52.586;13.442;2023-07-29T14:19:53;23.90;99.90
43627;DHT22;29217;52.586;13.442;2023-07-29T14:22:19;24.20;99.90
43627;DHT22;29217;52.586;13.442;2023-07-29T14:24:45;24.20;99.90
43627;DHT22;29217;52.586;13.442;2023-07-29T14:27:10;24.00;99.90
43627;DHT22;29217;52.586;13.442;2023-07-29T14:29:36;23.70;99.90
43627;DHT22;29217;52.586;13.442;2023-07-29T14:32:02;23.50;99.90
43627;DHT22;29217;52.586;13.442;2023-07-29T14:34:27;23.30;99.90
43627;DHT22;29217;52.586;13.442;2023-07-29T14:36:54;23.20;99.90
43627;DHT22;29217;52.586;13.442;2023-07-29T14:39:20;23.30;99.90
43627;DHT22;29217;52.586;13.442;2023-07-29T14:41:45;23.80;99.90
43627;DHT22;29217;52.586;13.442;2023-07-29T14:44:11;24.10;99.90
43627;DHT22;29217;52.586;13.442;2023-07-29T14:46:36;24.40;99.90
43627;DHT22;29217;52.586;13.442;2023-07-29T14:49:02;24.60;99.90
43627;DHT22;29217;52.586;13.442;2023-07-29T14:51:27;24.40;99.90
43627;DHT22;29217;52.586;13.442;2023-07-29T14:53:53;24.20;99.90
43627;DHT22;29217;52.586;13.442;2023-07-29T14:56:19;23.90;99.90
43627;DHT22;29217;52.586;13.442;2023-07-29T14:58:45;23.50;99.90
43627;DHT22;29217;52.586;13.442;2023-07-29T15:01:10;23.20;99.90
43627;DHT22;29217;52.586;13.442;2023-07-29T15:03:36;23.00;99.90
43627;DHT22;29217;52.586;13.442;2023-07-29T15:06:01;23.00;99.90
43627;DHT22;29217;52.586;13.442;2023-07-29T15:08:28;22.90;99.90
43627;DHT22;29217;52.586;13.442;2023-07-29T15:10:54;22.80;99.90
43627;DHT22;29217;52.586;13.442;2023-07-29T15:13:20;22.80;99.90
43627;DHT22;29217;52.586;13.442;2023-07-29T15:15:45;22.70;99.90
43627;DHT22;29217;52.586;13.442;2023-07-29T15:18:11;22.70;99.90
43627;DHT22;29217;52.586;13.442;2023-07-29T15:20:37;22.60;99.90
43627;DHT22;29217;52.586;13.442;2023-07-29T15:23:03;22.60;99.90